Terminal Aerodrome Forecast
Issued by NWS

Home | Current Version | Previous Version | Text Only | Print | Product List | Glossary On
Versions: 1 2 3 4 5 6 7 8 9 10 11 12 13 14 15 16
000
FTUS41 KPBZ 010500
TAFZZV
TAF
KZZV 010534Z 0106/0206 00000KT P6SM FEW100
     FM010700 VRB03KT 5SM BR SKC
      TEMPO 0109/0113 1/2SM FG
     FM011400 VRB03KT P6SM FEW050
     FM012100 18004KT P6SM VCTS BKN050CB
     FM020200 15004KT P6SM BKN050=

USA.gov is the U.S. government's official web portal to all federal, state and local government web resources and services.